Main page
METAR-TAF:

METAR-TAF

Airports :

Oil platform

J6-a, Netherlands

latitude: 53-49-27N, longitude: 2-56-43E, elevation: 34 m

Current weather observation

The report was made 43 minutes ago, at 19:55 UTC
Wind 16 kt from the Northwest
Temperature 12°C
Humidity 82%
Pressure 1028 hPa

METAR: EHJA 221955Z AUTO 31016KT //// // SCT017/// BKN020/// 12/09 Q1028 RE// W///H///

Time: 22:38 (20:38 UTC)


TAF: missing

Weather observations and forecasts of more than 4000 airports (METAR and TAF reports).

The available stations are represented by yellow and red dots on the map.

Hover mouse over dot to see the name of the station.

Then click to see weather observations and forecasts.

To change the map : click on the green buttons with a black cross to zoom in, on the green button with a dash to zoom out, or on the green arrows for adjacent maps.


METAR-TAF: